sensor_id;sensor_type;location;lat;lon;timestamp;pressure;altitude;pressure_sealevel;temperature;humidity
73936;BME280;62287;50.858;0.252;2023-06-24T00:00:23;102334.32;;;21.81;37.28
73936;BME280;62287;50.858;0.252;2023-06-24T00:00:54;102332.99;;;21.91;37.15
73936;BME280;62287;50.858;0.252;2023-06-24T00:01:25;102334.21;;;21.83;37.11
73936;BME280;62287;50.858;0.252;2023-06-24T00:01:56;102335.80;;;21.53;37.17
73936;BME280;62287;50.858;0.252;2023-06-24T00:02:27;102337.23;;;21.83;37.26
73936;BME280;62287;50.858;0.252;2023-06-24T00:02:58;102337.57;;;21.79;37.25
73936;BME280;62287;50.858;0.252;2023-06-24T00:03:28;102338.72;;;21.85;37.21
73936;BME280;62287;50.858;0.252;2023-06-24T00:03:59;102335.69;;;21.80;37.14
73936;BME280;62287;50.858;0.252;2023-06-24T00:04:30;102338.00;;;21.89;37.11
73936;BME280;62287;50.858;0.252;2023-06-24T00:05:02;102338.76;;;21.81;37.16
73936;BME280;62287;50.858;0.252;2023-06-24T00:05:33;102337.67;;;21.85;37.14
73936;BME280;62287;50.858;0.252;2023-06-24T00:06:04;102338.56;;;21.84;37.11
73936;BME280;62287;50.858;0.252;2023-06-24T00:06:35;102339.24;;;22.05;36.92
73936;BME280;62287;50.858;0.252;2023-06-24T00:07:06;102339.73;;;21.93;36.98
73936;BME280;62287;50.858;0.252;2023-06-24T00:07:37;102338.77;;;21.85;37.06
73936;BME280;62287;50.858;0.252;2023-06-24T00:08:08;102340.81;;;21.91;37.06
73936;BME280;62287;50.858;0.252;2023-06-24T00:08:39;102339.18;;;22.01;36.96
73936;BME280;62287;50.858;0.252;2023-06-24T00:09:10;102338.05;;;21.93;37.01
73936;BME280;62287;50.858;0.252;2023-06-24T00:09:41;102339.43;;;21.87;37.09
73936;BME280;62287;50.858;0.252;2023-06-24T00:10:13;102341.38;;;21.89;37.06
73936;BME280;62287;50.858;0.252;2023-06-24T00:10:44;102343.81;;;21.84;37.09
73936;BME280;62287;50.858;0.252;2023-06-24T00:11:15;102342.83;;;21.74;37.21
73936;BME280;62287;50.858;0.252;2023-06-24T00:11:46;102340.92;;;21.84;37.13
73936;BME280;62287;50.858;0.252;2023-06-24T00:12:17;102339.77;;;21.85;37.10
73936;BME280;62287;50.858;0.252;2023-06-24T00:12:48;102341.99;;;21.82;37.14
73936;BME280;62287;50.858;0.252;2023-06-24T00:13:19;102340.73;;;21.83;37.11
73936;BME280;62287;50.858;0.252;2023-06-24T00:13:50;102342.40;;;21.38;37.15
73936;BME280;62287;50.858;0.252;2023-06-24T00:14:21;102341.13;;;21.82;37.10
73936;BME280;62287;50.858;0.252;2023-06-24T00:14:53;102339.22;;;21.90;37.04
73936;BME280;62287;50.858;0.252;2023-06-24T00:15:23;102340.47;;;22.02;36.98
73936;BME280;62287;50.858;0.252;2023-06-24T00:15:54;102340.42;;;21.97;37.01
73936;BME280;62287;50.858;0.252;2023-06-24T00:16:26;102338.56;;;21.74;37.24
73936;BME280;62287;50.858;0.252;2023-06-24T00:16:56;102340.55;;;21.83;37.21
73936;BME280;62287;50.858;0.252;2023-06-24T00:17:27;102341.35;;;21.89;37.14
73936;BME280;62287;50.858;0.252;2023-06-24T00:17:58;102339.55;;;21.83;37.12
73936;BME280;62287;50.858;0.252;2023-06-24T00:18:29;102341.48;;;21.61;37.11
73936;BME280;62287;50.858;0.252;2023-06-24T00:19:00;102342.76;;;22.00;37.08
73936;BME280;62287;50.858;0.252;2023-06-24T00:19:31;102343.12;;;22.01;37.14
73936;BME280;62287;50.858;0.252;2023-06-24T00:20:03;102342.13;;;22.01;37.18
73936;BME280;62287;50.858;0.252;2023-06-24T00:20:34;102344.12;;;21.98;37.13
73936;BME280;62287;50.858;0.252;2023-06-24T00:21:05;102343.32;;;22.15;37.07
73936;BME280;62287;50.858;0.252;2023-06-24T00:21:35;102346.23;;;22.08;37.14
73936;BME280;62287;50.858;0.252;2023-06-24T00:22:07;102346.53;;;22.09;37.19
73936;BME280;62287;50.858;0.252;2023-06-24T00:22:38;102346.71;;;22.18;37.10
73936;BME280;62287;50.858;0.252;2023-06-24T00:23:09;102346.46;;;22.12;37.15
73936;BME280;62287;50.858;0.252;2023-06-24T00:23:40;102346.27;;;22.09;37.19
73936;BME280;62287;50.858;0.252;2023-06-24T00:24:11;102342.99;;;22.23;37.08
73936;BME280;62287;50.858;0.252;2023-06-24T00:24:42;102343.39;;;22.03;37.36
73936;BME280;62287;50.858;0.252;2023-06-24T00:25:13;102342.45;;;22.02;37.30
73936;BME280;62287;50.858;0.252;2023-06-24T00:25:44;102339.97;;;22.04;37.30
73936;BME280;62287;50.858;0.252;2023-06-24T00:26:15;102341.50;;;22.09;37.31
73936;BME280;62287;50.858;0.252;2023-06-24T00:26:46;102339.93;;;22.18;37.22
73936;BME280;62287;50.858;0.252;2023-06-24T00:27:17;102338.62;;;22.26;37.13
73936;BME280;62287;50.858;0.252;2023-06-24T00:27:48;102337.81;;;22.23;37.17
73936;BME280;62287;50.858;0.252;2023-06-24T00:28:19;102336.58;;;22.09;37.26
73936;BME280;62287;50.858;0.252;2023-06-24T00:28:49;102335.31;;;22.18;37.34
73936;BME280;62287;50.858;0.252;2023-06-24T00:29:21;102335.30;;;22.06;37.44
73936;BME280;62287;50.858;0.252;2023-06-24T00:29:52;102334.56;;;22.02;37.63
73936;BME280;62287;50.858;0.252;2023-06-24T00:30:23;102335.06;;;22.03;37.56
73936;BME280;62287;50.858;0.252;2023-06-24T00:30:54;102334.25;;;22.03;37.53
73936;BME280;62287;50.858;0.252;2023-06-24T00:31:25;102333.69;;;22.04;37.53
73936;BME280;62287;50.858;0.252;2023-06-24T00:31:56;102334.56;;;22.01;37.58
73936;BME280;62287;50.858;0.252;2023-06-24T00:32:27;102335.17;;;21.94;37.65
73936;BME280;62287;50.858;0.252;2023-06-24T00:32:58;102333.59;;;21.93;37.69
73936;BME280;62287;50.858;0.252;2023-06-24T00:33:29;102336.07;;;22.03;37.57
73936;BME280;62287;50.858;0.252;2023-06-24T00:34:00;102333.80;;;22.00;37.55
73936;BME280;62287;50.858;0.252;2023-06-24T00:34:30;102333.15;;;21.60;37.55
73936;BME280;62287;50.858;0.252;2023-06-24T00:35:01;102331.98;;;21.90;37.74
73936;BME280;62287;50.858;0.252;2023-06-24T00:35:32;102334.06;;;22.02;37.58
73936;BME280;62287;50.858;0.252;2023-06-24T00:36:04;102334.62;;;21.94;37.63
73936;BME280;62287;50.858;0.252;2023-06-24T00:36:35;102333.87;;;22.08;37.52
73936;BME280;62287;50.858;0.252;2023-06-24T00:37:06;102334.39;;;22.29;37.63
73936;BME280;62287;50.858;0.252;2023-06-24T00:37:36;102336.90;;;22.03;37.54
73936;BME280;62287;50.858;0.252;2023-06-24T00:38:07;102336.97;;;21.97;37.56
73936;BME280;62287;50.858;0.252;2023-06-24T00:38:39;102337.71;;;21.91;37.65
73936;BME280;62287;50.858;0.252;2023-06-24T00:39:10;102339.43;;;21.99;37.58
73936;BME280;62287;50.858;0.252;2023-06-24T00:39:40;102339.16;;;21.81;37.62
73936;BME280;62287;50.858;0.252;2023-06-24T00:40:12;102337.76;;;22.03;37.53
73936;BME280;62287;50.858;0.252;2023-06-24T00:40:43;102337.91;;;21.95;37.62
73936;BME280;62287;50.858;0.252;2023-06-24T00:41:14;102339.61;;;22.02;37.60
73936;BME280;62287;50.858;0.252;2023-06-24T00:41:46;102338.41;;;22.05;37.52
73936;BME280;62287;50.858;0.252;2023-06-24T00:42:18;102338.66;;;22.10;37.46
73936;BME280;62287;50.858;0.252;2023-06-24T00:42:49;102340.69;;;22.13;37.40
73936;BME280;62287;50.858;0.252;2023-06-24T00:43:20;102339.61;;;22.12;37.44
73936;BME280;62287;50.858;0.252;2023-06-24T00:43:51;102338.26;;;22.25;37.26
73936;BME280;62287;50.858;0.252;2023-06-24T00:44:22;102337.95;;;22.27;37.29
73936;BME280;62287;50.858;0.252;2023-06-24T00:44:53;102340.76;;;22.18;37.40
73936;BME280;62287;50.858;0.252;2023-06-24T00:45:24;102341.00;;;22.00;37.51
73936;BME280;62287;50.858;0.252;2023-06-24T00:45:55;102339.86;;;22.04;37.61
73936;BME280;62287;50.858;0.252;2023-06-24T00:46:27;102338.67;;;22.44;37.50
73936;BME280;62287;50.858;0.252;2023-06-24T00:46:58;102339.13;;;21.78;37.49
73936;BME280;62287;50.858;0.252;2023-06-24T00:47:30;102340.07;;;21.75;37.43
73936;BME280;62287;50.858;0.252;2023-06-24T00:48:02;102339.88;;;22.13;37.44
73936;BME280;62287;50.858;0.252;2023-06-24T00:48:33;102340.53;;;22.14;37.54
73936;BME280;62287;50.858;0.252;2023-06-24T00:49:04;102340.56;;;22.14;37.51
73936;BME280;62287;50.858;0.252;2023-06-24T00:49:35;102340.58;;;22.38;37.64
73936;BME280;62287;50.858;0.252;2023-06-24T00:50:07;102340.50;;;22.06;37.57
73936;BME280;62287;50.858;0.252;2023-06-24T00:50:38;102342.08;;;22.17;37.59
73936;BME280;62287;50.858;0.252;2023-06-24T00:51:09;102341.09;;;22.11;37.57
73936;BME280;62287;50.858;0.252;2023-06-24T00:51:40;102343.97;;;21.97;37.71
73936;BME280;62287;50.858;0.252;2023-06-24T00:52:11;102341.80;;;22.01;37.68
73936;BME280;62287;50.858;0.252;2023-06-24T00:52:42;102341.48;;;22.02;37.60
73936;BME280;62287;50.858;0.252;2023-06-24T00:53:13;102341.00;;;22.04;37.55
73936;BME280;62287;50.858;0.252;2023-06-24T00:53:44;102341.40;;;21.98;37.63
73936;BME280;62287;50.858;0.252;2023-06-24T00:54:15;102340.88;;;22.08;37.62
73936;BME280;62287;50.858;0.252;2023-06-24T00:54:46;102339.51;;;22.43;37.65
73936;BME280;62287;50.858;0.252;2023-06-24T00:55:17;102341.61;;;21.91;37.58
73936;BME280;62287;50.858;0.252;2023-06-24T00:55:48;102340.45;;;22.07;37.57
73936;BME280;62287;50.858;0.252;2023-06-24T00:56:22;102340.50;;;22.08;37.54
73936;BME280;62287;50.858;0.252;2023-06-24T00:56:56;102343.03;;;22.01;37.58
73936;BME280;62287;50.858;0.252;2023-06-24T00:57:27;102342.52;;;21.98;37.51
73936;BME280;62287;50.858;0.252;2023-06-24T00:58:04;102342.18;;;21.96;37.52
73936;BME280;62287;50.858;0.252;2023-06-24T00:58:35;102340.61;;;21.64;37.52
73936;BME280;62287;50.858;0.252;2023-06-24T00:59:07;102339.11;;;22.08;37.43
73936;BME280;62287;50.858;0.252;2023-06-24T00:59:42;102338.84;;;22.09;37.47
73936;BME280;62287;50.858;0.252;2023-06-24T01:00:15;102340.41;;;22.13;37.37
73936;BME280;62287;50.858;0.252;2023-06-24T01:00:47;102334.67;;;21.74;37.43
73936;BME280;62287;50.858;0.252;2023-06-24T01:01:20;102335.61;;;22.02;37.59
73936;BME280;62287;50.858;0.252;2023-06-24T01:01:51;102334.77;;;22.08;37.43
73936;BME280;62287;50.858;0.252;2023-06-24T01:02:22;102335.09;;;22.00;37.50
73936;BME280;62287;50.858;0.252;2023-06-24T01:02:53;102333.00;;;22.02;37.47
73936;BME280;62287;50.858;0.252;2023-06-24T01:03:25;102332.37;;;22.00;37.48
73936;BME280;62287;50.858;0.252;2023-06-24T01:03:56;102329.40;;;22.09;37.38
73936;BME280;62287;50.858;0.252;2023-06-24T01:04:27;102330.30;;;22.14;37.27
73936;BME280;62287;50.858;0.252;2023-06-24T01:04:58;102329.69;;;22.20;37.22
73936;BME280;62287;50.858;0.252;2023-06-24T01:05:31;102330.78;;;22.13;37.25
73936;BME280;62287;50.858;0.252;2023-06-24T01:06:01;102329.92;;;22.08;37.38
73936;BME280;62287;50.858;0.252;2023-06-24T01:06:36;102330.47;;;22.02;37.43
73936;BME280;62287;50.858;0.252;2023-06-24T01:07:07;102329.80;;;22.06;37.40
73936;BME280;62287;50.858;0.252;2023-06-24T01:07:38;102331.46;;;22.15;37.35
73936;BME280;62287;50.858;0.252;2023-06-24T01:08:09;102331.93;;;22.04;37.43
73936;BME280;62287;50.858;0.252;2023-06-24T01:08:41;102329.91;;;22.07;37.31
73936;BME280;62287;50.858;0.252;2023-06-24T01:09:12;102332.07;;;22.03;37.27
73936;BME280;62287;50.858;0.252;2023-06-24T01:09:43;102328.04;;;21.73;37.31
73936;BME280;62287;50.858;0.252;2023-06-24T01:10:15;102325.93;;;21.76;37.28
73936;BME280;62287;50.858;0.252;2023-06-24T01:10:45;102328.63;;;22.11;37.19
73936;BME280;62287;50.858;0.252;2023-06-24T01:11:16;102328.01;;;22.11;37.25
73936;BME280;62287;50.858;0.252;2023-06-24T01:11:47;102328.50;;;22.10;37.24
73936;BME280;62287;50.858;0.252;2023-06-24T01:12:19;102325.90;;;22.06;37.29
73936;BME280;62287;50.858;0.252;2023-06-24T01:12:50;102325.52;;;21.97;37.31
73936;BME280;62287;50.858;0.252;2023-06-24T01:13:21;102325.85;;;21.94;37.36
73936;BME280;62287;50.858;0.252;2023-06-24T01:13:52;102322.86;;;22.32;37.41
73936;BME280;62287;50.858;0.252;2023-06-24T01:14:23;102321.73;;;21.85;37.49
73936;BME280;62287;50.858;0.252;2023-06-24T01:14:54;102323.95;;;21.83;37.40
73936;BME280;62287;50.858;0.252;2023-06-24T01:15:26;102322.35;;;21.92;37.34
73936;BME280;62287;50.858;0.252;2023-06-24T01:16:02;102322.62;;;21.88;37.37
73936;BME280;62287;50.858;0.252;2023-06-24T01:16:42;102323.32;;;22.01;37.19
73936;BME280;62287;50.858;0.252;2023-06-24T01:17:19;102320.65;;;22.03;37.27
73936;BME280;62287;50.858;0.252;2023-06-24T01:17:57;102319.96;;;21.68;37.22
73936;BME280;62287;50.858;0.252;2023-06-24T01:18:34;102319.14;;;22.01;37.27
73936;BME280;62287;50.858;0.252;2023-06-24T01:19:20;102318.01;;;22.02;37.26
73936;BME280;62287;50.858;0.252;2023-06-24T01:20:04;102316.27;;;22.02;37.13
73936;BME280;62287;50.858;0.252;2023-06-24T01:20:43;102312.95;;;22.10;37.13
73936;BME280;62287;50.858;0.252;2023-06-24T01:21:21;102310.30;;;22.15;37.07
73936;BME280;62287;50.858;0.252;2023-06-24T01:22:06;102311.04;;;22.22;37.00
73936;BME280;62287;50.858;0.252;2023-06-24T01:25:36;102307.87;;;22.08;37.15
73936;BME280;62287;50.858;0.252;2023-06-24T01:26:20;102309.32;;;22.14;37.08
73936;BME280;62287;50.858;0.252;2023-06-24T01:27:10;102308.59;;;22.01;37.16
73936;BME280;62287;50.858;0.252;2023-06-24T01:28:03;102310.50;;;22.07;37.05
73936;BME280;62287;50.858;0.252;2023-06-24T01:28:54;102309.71;;;22.23;37.03
73936;BME280;62287;50.858;0.252;2023-06-24T01:29:38;102310.20;;;21.85;37.17
73936;BME280;62287;50.858;0.252;2023-06-24T01:30:38;102311.64;;;22.00;37.16
73936;BME280;62287;50.858;0.252;2023-06-24T01:31:29;102309.35;;;21.87;37.34
73936;BME280;62287;50.858;0.252;2023-06-24T01:32:05;102309.32;;;21.92;37.34
73936;BME280;62287;50.858;0.252;2023-06-24T01:32:43;102310.98;;;22.01;37.26
73936;BME280;62287;50.858;0.252;2023-06-24T01:33:21;102312.91;;;22.01;37.24
73936;BME280;62287;50.858;0.252;2023-06-24T01:33:58;102312.73;;;22.10;37.14
73936;BME280;62287;50.858;0.252;2023-06-24T01:34:35;102310.90;;;21.99;37.11
73936;BME280;62287;50.858;0.252;2023-06-24T01:35:09;102309.78;;;21.94;37.29
73936;BME280;62287;50.858;0.252;2023-06-24T01:35:43;102308.31;;;21.77;37.39
73936;BME280;62287;50.858;0.252;2023-06-24T01:36:18;102308.26;;;21.46;37.38
73936;BME280;62287;50.858;0.252;2023-06-24T01:37:00;102308.93;;;21.94;37.42
73936;BME280;62287;50.858;0.252;2023-06-24T01:37:37;102311.03;;;22.02;37.23
73936;BME280;62287;50.858;0.252;2023-06-24T01:38:12;102310.74;;;21.98;37.24
73936;BME280;62287;50.858;0.252;2023-06-24T01:38:48;102307.62;;;22.05;37.21
73936;BME280;62287;50.858;0.252;2023-06-24T01:39:22;102306.91;;;22.10;37.15
73936;BME280;62287;50.858;0.252;2023-06-24T01:40:00;102305.59;;;21.73;37.53
73936;BME280;62287;50.858;0.252;2023-06-24T01:40:38;102303.77;;;21.88;37.45
73936;BME280;62287;50.858;0.252;2023-06-24T01:41:13;102300.90;;;21.85;37.48
73936;BME280;62287;50.858;0.252;2023-06-24T01:41:51;102299.52;;;21.86;37.45
73936;BME280;62287;50.858;0.252;2023-06-24T01:42:24;102303.03;;;22.10;37.34
73936;BME280;62287;50.858;0.252;2023-06-24T01:43:01;102299.43;;;22.06;37.35
73936;BME280;62287;50.858;0.252;2023-06-24T01:43:34;102299.20;;;21.98;37.42
73936;BME280;62287;50.858;0.252;2023-06-24T01:44:07;102300.45;;;22.30;37.46
73936;BME280;62287;50.858;0.252;2023-06-24T01:44:42;102297.83;;;22.01;37.37
73936;BME280;62287;50.858;0.252;2023-06-24T01:45:16;102297.21;;;21.96;37.46
73936;BME280;62287;50.858;0.252;2023-06-24T01:45:52;102297.97;;;22.13;37.40
73936;BME280;62287;50.858;0.252;2023-06-24T01:46:25;102298.16;;;22.05;37.38
73936;BME280;62287;50.858;0.252;2023-06-24T01:46:59;102296.61;;;22.11;37.35
73936;BME280;62287;50.858;0.252;2023-06-24T01:47:32;102297.40;;;22.05;37.32
73936;BME280;62287;50.858;0.252;2023-06-24T01:48:07;102296.98;;;21.99;37.43
73936;BME280;62287;50.858;0.252;2023-06-24T01:48:41;102298.01;;;21.61;37.41
73936;BME280;62287;50.858;0.252;2023-06-24T01:49:14;102299.17;;;22.31;37.37
73936;BME280;62287;50.858;0.252;2023-06-24T01:49:47;102299.75;;;22.08;37.46
73936;BME280;62287;50.858;0.252;2023-06-24T01:50:22;102295.99;;;22.45;37.47
73936;BME280;62287;50.858;0.252;2023-06-24T01:50:58;102297.21;;;22.09;37.52
73936;BME280;62287;50.858;0.252;2023-06-24T01:51:30;102297.37;;;21.98;37.66
73936;BME280;62287;50.858;0.252;2023-06-24T01:52:04;102294.41;;;22.00;37.64
73936;BME280;62287;50.858;0.252;2023-06-24T01:52:37;102293.65;;;21.97;37.67
73936;BME280;62287;50.858;0.252;2023-06-24T01:53:10;102295.18;;;22.12;37.52
73936;BME280;62287;50.858;0.252;2023-06-24T01:53:45;102294.24;;;22.08;37.57
73936;BME280;62287;50.858;0.252;2023-06-24T01:54:20;102294.97;;;22.06;37.60
73936;BME280;62287;50.858;0.252;2023-06-24T01:54:54;102293.63;;;22.19;37.53
73936;BME280;62287;50.858;0.252;2023-06-24T01:55:27;102294.13;;;22.02;37.60
73936;BME280;62287;50.858;0.252;2023-06-24T01:56:01;102291.78;;;21.96;37.66
73936;BME280;62287;50.858;0.252;2023-06-24T01:56:36;102293.50;;;22.00;37.56
73936;BME280;62287;50.858;0.252;2023-06-24T01:57:10;102291.94;;;22.03;37.53
73936;BME280;62287;50.858;0.252;2023-06-24T01:57:44;102291.15;;;21.86;37.67
73936;BME280;62287;50.858;0.252;2023-06-24T01:58:17;102290.60;;;21.81;37.66
73936;BME280;62287;50.858;0.252;2023-06-24T01:58:51;102289.55;;;21.92;37.58
73936;BME280;62287;50.858;0.252;2023-06-24T01:59:26;102292.15;;;22.00;37.61
73936;BME280;62287;50.858;0.252;2023-06-24T01:59:59;102291.30;;;21.98;37.60
73936;BME280;62287;50.858;0.252;2023-06-24T02:00:32;102288.77;;;21.99;37.55
73936;BME280;62287;50.858;0.252;2023-06-24T02:01:04;102291.21;;;22.07;37.46
73936;BME280;62287;50.858;0.252;2023-06-24T02:01:37;102290.45;;;22.39;37.53
73936;BME280;62287;50.858;0.252;2023-06-24T02:02:09;102289.30;;;22.03;37.60
73936;BME280;62287;50.858;0.252;2023-06-24T02:02:41;102286.63;;;21.89;37.81
73936;BME280;62287;50.858;0.252;2023-06-24T02:03:13;102288.24;;;22.13;37.52
73936;BME280;62287;50.858;0.252;2023-06-24T02:03:45;102287.06;;;22.04;37.60
73936;BME280;62287;50.858;0.252;2023-06-24T02:04:17;102284.17;;;21.68;37.63
73936;BME280;62287;50.858;0.252;2023-06-24T02:04:50;102284.21;;;21.98;37.64
73936;BME280;62287;50.858;0.252;2023-06-24T02:05:24;102283.67;;;22.03;37.57
73936;BME280;62287;50.858;0.252;2023-06-24T02:05:56;102283.79;;;21.96;37.65
73936;BME280;62287;50.858;0.252;2023-06-24T02:06:29;102283.68;;;21.90;37.61
73936;BME280;62287;50.858;0.252;2023-06-24T02:07:02;102282.76;;;21.96;37.61
73936;BME280;62287;50.858;0.252;2023-06-24T02:07:34;102284.65;;;21.92;37.73
73936;BME280;62287;50.858;0.252;2023-06-24T02:08:08;102282.63;;;21.92;37.66
73936;BME280;62287;50.858;0.252;2023-06-24T02:08:41;102284.02;;;21.94;37.69
73936;BME280;62287;50.858;0.252;2023-06-24T02:09:16;102282.73;;;21.92;37.68
73936;BME280;62287;50.858;0.252;2023-06-24T02:09:48;102281.85;;;21.79;37.64
73936;BME280;62287;50.858;0.252;2023-06-24T02:10:21;102281.50;;;21.46;37.69
73936;BME280;62287;50.858;0.252;2023-06-24T02:10:52;102281.18;;;22.03;37.52
73936;BME280;62287;50.858;0.252;2023-06-24T02:11:26;102281.59;;;22.07;37.50
73936;BME280;62287;50.858;0.252;2023-06-24T02:12:01;102283.55;;;22.02;37.48
73936;BME280;62287;50.858;0.252;2023-06-24T02:12:33;102283.86;;;22.08;37.39
73936;BME280;62287;50.858;0.252;2023-06-24T02:13:04;102281.50;;;22.22;37.27
73936;BME280;62287;50.858;0.252;2023-06-24T02:13:37;102281.98;;;22.00;37.44
73936;BME280;62287;50.858;0.252;2023-06-24T02:14:10;102282.76;;;21.91;37.56
73936;BME280;62287;50.858;0.252;2023-06-24T02:14:42;102283.70;;;22.12;37.44
73936;BME280;62287;50.858;0.252;2023-06-24T02:15:13;102283.44;;;22.00;37.43
73936;BME280;62287;50.858;0.252;2023-06-24T02:15:45;102283.15;;;22.04;37.41
73936;BME280;62287;50.858;0.252;2023-06-24T02:16:18;102281.26;;;22.01;37.54
73936;BME280;62287;50.858;0.252;2023-06-24T02:16:51;102279.61;;;21.94;37.43
73936;BME280;62287;50.858;0.252;2023-06-24T02:17:25;102280.74;;;22.14;37.37
73936;BME280;62287;50.858;0.252;2023-06-24T02:17:56;102280.74;;;22.14;37.21
73936;BME280;62287;50.858;0.252;2023-06-24T02:18:28;102283.75;;;22.10;37.38
73936;BME280;62287;50.858;0.252;2023-06-24T02:18:59;102281.59;;;22.08;37.49
73936;BME280;62287;50.858;0.252;2023-06-24T02:19:31;102281.88;;;22.06;37.54
73936;BME280;62287;50.858;0.252;2023-06-24T02:20:05;102282.15;;;21.96;37.54
73936;BME280;62287;50.858;0.252;2023-06-24T02:20:38;102281.89;;;22.11;37.52
73936;BME280;62287;50.858;0.252;2023-06-24T02:21:11;102280.79;;;22.22;37.34
73936;BME280;62287;50.858;0.252;2023-06-24T02:21:42;102281.18;;;22.27;37.23
73936;BME280;62287;50.858;0.252;2023-06-24T02:22:15;102281.71;;;21.93;37.26
73936;BME280;62287;50.858;0.252;2023-06-24T02:22:46;102281.90;;;22.30;37.28
73936;BME280;62287;50.858;0.252;2023-06-24T02:23:19;102283.25;;;21.85;37.28
73936;BME280;62287;50.858;0.252;2023-06-24T02:23:51;102288.12;;;22.25;37.38
73936;BME280;62287;50.858;0.252;2023-06-24T02:24:23;102286.89;;;22.16;37.40
73936;BME280;62287;50.858;0.252;2023-06-24T02:24:55;102284.64;;;22.11;37.44
73936;BME280;62287;50.858;0.252;2023-06-24T02:25:27;102285.08;;;22.15;37.46
73936;BME280;62287;50.858;0.252;2023-06-24T02:26:00;102285.10;;;22.18;37.41
73936;BME280;62287;50.858;0.252;2023-06-24T02:26:32;102285.57;;;22.11;37.37
73936;BME280;62287;50.858;0.252;2023-06-24T02:27:04;102285.36;;;22.00;37.65
73936;BME280;62287;50.858;0.252;2023-06-24T02:27:36;102286.26;;;22.06;37.68
73936;BME280;62287;50.858;0.252;2023-06-24T02:28:08;102286.42;;;22.11;37.77
73936;BME280;62287;50.858;0.252;2023-06-24T02:28:41;102286.10;;;22.14;37.63
73936;BME280;62287;50.858;0.252;2023-06-24T02:29:13;102288.54;;;22.20;37.71
73936;BME280;62287;50.858;0.252;2023-06-24T02:29:45;102287.45;;;21.78;37.87
73936;BME280;62287;50.858;0.252;2023-06-24T02:30:17;102287.31;;;22.06;37.89
73936;BME280;62287;50.858;0.252;2023-06-24T02:30:49;102287.12;;;22.00;38.01
73936;BME280;62287;50.858;0.252;2023-06-24T02:31:20;102286.09;;;22.00;37.97
73936;BME280;62287;50.858;0.252;2023-06-24T02:31:51;102288.05;;;22.13;37.84
73936;BME280;62287;50.858;0.252;2023-06-24T02:32:22;102289.23;;;22.06;37.90
73936;BME280;62287;50.858;0.252;2023-06-24T02:32:54;102289.54;;;22.05;37.85
73936;BME280;62287;50.858;0.252;2023-06-24T02:33:25;102289.00;;;22.09;37.90
73936;BME280;62287;50.858;0.252;2023-06-24T02:33:56;102287.84;;;22.04;37.96
73936;BME280;62287;50.858;0.252;2023-06-24T02:34:27;102290.50;;;22.08;37.90
73936;BME280;62287;50.858;0.252;2023-06-24T02:34:58;102291.06;;;22.17;37.78
73936;BME280;62287;50.858;0.252;2023-06-24T02:35:29;102289.59;;;22.16;37.81
73936;BME280;62287;50.858;0.252;2023-06-24T02:36:00;102290.63;;;22.12;37.85
73936;BME280;62287;50.858;0.252;2023-06-24T02:36:31;102288.27;;;22.00;37.91
73936;BME280;62287;50.858;0.252;2023-06-24T02:37:03;102289.00;;;21.60;37.91
73936;BME280;62287;50.858;0.252;2023-06-24T02:37:34;102287.99;;;22.06;37.93
73936;BME280;62287;50.858;0.252;2023-06-24T02:38:05;102286.40;;;22.02;37.98
73936;BME280;62287;50.858;0.252;2023-06-24T02:38:36;102285.97;;;22.21;37.92
73936;BME280;62287;50.858;0.252;2023-06-24T02:39:07;102285.61;;;22.13;37.93
73936;BME280;62287;50.858;0.252;2023-06-24T02:39:38;102283.78;;;22.07;38.01
73936;BME280;62287;50.858;0.252;2023-06-24T02:40:09;102285.71;;;22.10;37.93
73936;BME280;62287;50.858;0.252;2023-06-24T02:40:43;102285.26;;;22.10;37.91
73936;BME280;62287;50.858;0.252;2023-06-24T02:41:14;102285.14;;;22.11;37.87
73936;BME280;62287;50.858;0.252;2023-06-24T02:41:45;102287.09;;;22.09;37.86
73936;BME280;62287;50.858;0.252;2023-06-24T02:42:17;102287.25;;;22.10;37.78
73936;BME280;62287;50.858;0.252;2023-06-24T02:42:48;102288.06;;;22.09;37.80
73936;BME280;62287;50.858;0.252;2023-06-24T02:43:19;102289.44;;;22.05;37.82
73936;BME280;62287;50.858;0.252;2023-06-24T02:43:49;102290.91;;;22.08;37.79
73936;BME280;62287;50.858;0.252;2023-06-24T02:44:20;102288.43;;;21.91;37.94
73936;BME280;62287;50.858;0.252;2023-06-24T02:44:51;102290.31;;;21.93;37.87
73936;BME280;62287;50.858;0.252;2023-06-24T02:45:23;102289.72;;;22.07;37.87
73936;BME280;62287;50.858;0.252;2023-06-24T02:45:54;102292.41;;;21.92;37.81
73936;BME280;62287;50.858;0.252;2023-06-24T02:46:27;102291.89;;;22.05;37.75
73936;BME280;62287;50.858;0.252;2023-06-24T02:47:00;102291.54;;;21.93;37.85
73936;BME280;62287;50.858;0.252;2023-06-24T02:47:31;102291.23;;;21.84;37.94
73936;BME280;62287;50.858;0.252;2023-06-24T02:48:04;102291.20;;;21.50;37.92
73936;BME280;62287;50.858;0.252;2023-06-24T02:48:38;102293.49;;;21.81;37.96
73936;BME280;62287;50.858;0.252;2023-06-24T02:49:10;102292.12;;;21.86;37.88
73936;BME280;62287;50.858;0.252;2023-06-24T02:49:44;102293.47;;;21.88;37.87
73936;BME280;62287;50.858;0.252;2023-06-24T02:50:16;102293.72;;;22.19;37.89
73936;BME280;62287;50.858;0.252;2023-06-24T02:50:48;102293.18;;;21.95;37.79
73936;BME280;62287;50.858;0.252;2023-06-24T02:51:20;102293.37;;;21.93;37.78
73936;BME280;62287;50.858;0.252;2023-06-24T02:51:51;102293.87;;;21.92;37.78
73936;BME280;62287;50.858;0.252;2023-06-24T02:52:22;102293.51;;;21.79;37.92
73936;BME280;62287;50.858;0.252;2023-06-24T02:52:54;102290.77;;;21.87;37.88
73936;BME280;62287;50.858;0.252;2023-06-24T02:53:25;102291.37;;;21.89;37.82
73936;BME280;62287;50.858;0.252;2023-06-24T02:53:57;102290.17;;;21.89;37.87
73936;BME280;62287;50.858;0.252;2023-06-24T02:54:28;102288.54;;;21.92;37.84